createdAt,value
2023-12-23T00:00:48.993Z,93780.00
2023-12-23T00:01:49.028Z,93781.00
2023-12-23T00:02:48.937Z,93794.00
2023-12-23T00:03:49.000Z,93773.00
2023-12-23T00:04:49.002Z,93772.00
2023-12-23T00:05:49.070Z,93762.00
2023-12-23T00:06:48.980Z,93766.00
2023-12-23T00:07:49.246Z,93781.00
2023-12-23T00:08:48.973Z,93783.00
2023-12-23T00:09:49.010Z,93777.00
2023-12-23T00:10:49.046Z,93786.00
2023-12-23T00:11:49.145Z,93764.00
2023-12-23T00:12:49.049Z,93779.00
2023-12-23T00:13:49.073Z,93772.00
2023-12-23T00:14:49.056Z,93784.00
2023-12-23T00:15:49.077Z,93783.00
2023-12-23T00:16:49.079Z,93777.00
2023-12-23T00:17:50.757Z,93792.00
2023-12-23T00:18:49.120Z,93796.00
2023-12-23T00:19:49.171Z,93799.00
2023-12-23T00:20:49.146Z,93802.00
2023-12-23T00:21:49.105Z,93796.00
2023-12-23T00:22:49.104Z,93800.00
2023-12-23T00:23:49.110Z,93799.00
2023-12-23T00:24:49.127Z,93799.00
2023-12-23T00:25:49.169Z,93801.00
2023-12-23T00:26:49.133Z,93806.00
2023-12-23T00:27:49.413Z,93809.00
2023-12-23T00:28:49.174Z,93808.00
2023-12-23T00:29:49.138Z,93803.00
2023-12-23T00:30:49.185Z,93795.00
2023-12-23T00:31:49.214Z,93806.00
2023-12-23T00:32:49.242Z,93813.00
2023-12-23T00:33:49.279Z,93811.00
2023-12-23T00:34:49.202Z,93817.00
2023-12-23T00:35:49.189Z,93808.00
2023-12-23T00:36:49.206Z,93813.00
2023-12-23T00:37:49.479Z,93809.00
2023-12-23T00:38:49.205Z,93812.00
2023-12-23T00:39:49.206Z,93830.00
2023-12-23T00:40:49.289Z,93818.00
2023-12-23T00:41:49.225Z,93806.00
2023-12-23T00:42:49.232Z,93814.00
2023-12-23T00:43:49.270Z,93815.00
2023-12-23T00:44:49.251Z,93823.00
2023-12-23T00:45:49.257Z,93822.00
2023-12-23T00:46:49.384Z,93818.00
2023-12-23T00:47:49.474Z,93819.00
2023-12-23T00:48:49.377Z,93822.00
2023-12-23T00:49:49.299Z,93818.00
2023-12-23T00:50:49.272Z,93817.00
2023-12-23T00:51:49.285Z,93821.00
2023-12-23T00:52:49.304Z,93822.00
2023-12-23T00:53:49.432Z,93807.00
2023-12-23T00:54:49.307Z,93811.00
2023-12-23T00:55:49.333Z,93799.00
2023-12-23T00:56:49.304Z,93817.00
2023-12-23T00:57:49.580Z,93821.00
2023-12-23T00:58:49.376Z,93827.00
2023-12-23T00:59:49.327Z,93835.00
2023-12-23T01:00:49.380Z,93830.00
2023-12-23T01:01:49.399Z,93833.00
2023-12-23T01:02:49.367Z,93821.00
2023-12-23T01:03:49.420Z,93826.00
2023-12-23T01:04:49.414Z,93823.00
2023-12-23T01:05:49.427Z,93827.00
2023-12-23T01:06:49.431Z,93837.00
2023-12-23T01:07:49.666Z,93830.00
2023-12-23T01:08:49.421Z,93826.00
2023-12-23T01:09:49.456Z,93835.00
2023-12-23T01:10:49.511Z,93842.00
2023-12-23T01:11:49.541Z,93836.00
2023-12-23T01:12:49.569Z,93839.00
2023-12-23T01:13:49.636Z,93859.00
2023-12-23T01:14:49.659Z,93848.00
2023-12-23T01:15:49.715Z,93849.00
2023-12-23T01:16:49.810Z,93845.00
2023-12-23T01:17:50.184Z,93862.00
2023-12-23T01:18:49.912Z,93841.00
2023-12-23T01:19:49.838Z,93867.00
2023-12-23T01:20:49.831Z,93875.00
2023-12-23T01:21:49.838Z,93878.00
2023-12-23T01:22:49.856Z,93871.00
2023-12-23T01:23:49.877Z,93872.00
2023-12-23T01:24:49.891Z,93871.00
2023-12-23T01:25:49.902Z,93869.00
2023-12-23T01:26:49.910Z,93876.00
2023-12-23T01:27:50.206Z,93874.00
2023-12-23T01:28:49.984Z,93865.00
2023-12-23T01:29:49.954Z,93883.00
2023-12-23T01:30:50.030Z,93888.00
2023-12-23T01:31:50.004Z,93887.00
2023-12-23T01:32:50.098Z,93874.00
2023-12-23T01:33:50.159Z,93868.00
2023-12-23T01:34:50.146Z,93890.00
2023-12-23T01:35:50.039Z,93880.00
2023-12-23T01:36:50.041Z,93878.00
2023-12-23T01:37:50.343Z,93876.00
2023-12-23T01:38:50.067Z,93866.00
2023-12-23T01:39:50.069Z,93884.00
2023-12-23T01:40:50.142Z,93885.00
2023-12-23T01:41:50.081Z,93895.00
2023-12-23T01:42:50.098Z,93906.00
2023-12-23T01:43:50.182Z,93888.00
2023-12-23T01:44:50.111Z,93890.00
2023-12-23T01:45:50.142Z,93888.00
2023-12-23T01:46:50.180Z,93898.00
2023-12-23T01:47:50.611Z,93881.00
2023-12-23T01:48:50.216Z,93883.00
2023-12-23T01:49:50.219Z,93909.00
2023-12-23T01:50:50.217Z,93890.00
2023-12-23T01:51:50.211Z,93903.00
2023-12-23T01:52:50.310Z,93908.00
2023-12-23T01:53:50.266Z,93915.00
2023-12-23T01:54:50.258Z,93899.00
2023-12-23T01:55:50.292Z,93913.00
2023-12-23T01:56:50.290Z,93917.00
2023-12-23T01:57:50.499Z,93915.00
2023-12-23T01:58:50.320Z,93913.00
2023-12-23T01:59:50.327Z,93934.00
2023-12-23T02:00:50.371Z,93939.00
2023-12-23T02:01:50.484Z,93945.00
2023-12-23T02:02:50.765Z,93942.00
2023-12-23T02:03:50.453Z,93928.00
2023-12-23T02:04:50.447Z,93941.00
2023-12-23T02:05:50.442Z,93946.00
2023-12-23T02:06:50.429Z,93932.00
2023-12-23T02:07:50.449Z,93936.00
2023-12-23T02:08:50.459Z,93930.00
2023-12-23T02:09:50.471Z,93940.00
2023-12-23T02:10:50.564Z,93940.00
2023-12-23T02:11:50.524Z,93941.00
2023-12-23T02:12:58.561Z,93933.00
2023-12-23T02:13:51.593Z,93941.00
2023-12-23T02:14:50.582Z,93927.00
2023-12-23T02:15:50.552Z,93934.00
2023-12-23T02:16:50.551Z,93939.00
2023-12-23T02:17:50.581Z,93943.00
2023-12-23T02:18:50.631Z,93949.00
2023-12-23T02:19:50.558Z,93950.00
2023-12-23T02:20:50.572Z,93945.00
2023-12-23T02:21:50.559Z,93954.00
2023-12-23T02:22:50.740Z,93958.00
2023-12-23T02:23:51.783Z,93959.00
2023-12-23T02:24:50.547Z,93956.00
2023-12-23T02:25:50.592Z,93958.00
2023-12-23T02:26:50.560Z,93961.00
2023-12-23T02:27:50.574Z,93970.00
2023-12-23T02:28:50.612Z,93969.00
2023-12-23T02:29:50.550Z,93973.00
2023-12-23T02:30:50.588Z,93971.00
2023-12-23T02:31:50.614Z,93964.00
2023-12-23T02:32:50.987Z,93969.00
2023-12-23T02:33:50.577Z,93984.00
2023-12-23T02:34:50.612Z,93980.00
2023-12-23T02:35:50.570Z,93985.00
2023-12-23T02:36:50.580Z,93985.00
2023-12-23T02:37:50.609Z,93993.00
2023-12-23T02:38:50.565Z,93992.00
2023-12-23T02:39:50.575Z,93998.00
2023-12-23T02:40:50.613Z,94006.00
2023-12-23T02:41:50.587Z,94006.00
2023-12-23T02:42:50.959Z,94017.00
2023-12-23T02:43:50.594Z,94002.00
2023-12-23T02:44:50.569Z,94011.00
2023-12-23T02:45:50.617Z,94012.00
2023-12-23T02:46:50.625Z,94009.00
2023-12-23T02:47:50.696Z,94011.00
2023-12-23T02:48:50.686Z,94017.00
2023-12-23T02:49:50.685Z,94014.00
2023-12-23T02:50:50.688Z,94020.00
2023-12-23T02:51:50.718Z,94016.00
2023-12-23T02:52:51.165Z,94009.00
2023-12-23T02:53:50.738Z,94019.00
2023-12-23T02:54:50.753Z,94024.00
2023-12-23T02:55:50.827Z,94026.00
2023-12-23T02:56:50.796Z,94020.00
2023-12-23T02:57:50.826Z,94013.00
2023-12-23T02:58:52.402Z,94012.00
2023-12-23T02:59:50.849Z,94029.00
2023-12-23T03:00:50.891Z,94031.00
2023-12-23T03:01:50.872Z,94011.00
2023-12-23T03:02:51.104Z,94037.00
2023-12-23T03:03:50.849Z,94044.00
2023-12-23T03:04:50.898Z,94035.00
2023-12-23T03:05:50.889Z,94027.00
2023-12-23T03:06:50.855Z,94032.00
2023-12-23T03:07:50.885Z,94035.00
2023-12-23T03:08:50.849Z,94037.00
2023-12-23T03:09:50.841Z,94050.00
2023-12-23T03:10:50.898Z,94054.00
2023-12-23T03:11:50.868Z,94046.00
2023-12-23T03:12:51.125Z,94047.00
2023-12-23T03:13:50.893Z,94054.00
2023-12-23T03:14:50.851Z,94057.00
2023-12-23T03:15:50.854Z,94052.00
2023-12-23T03:16:50.955Z,94053.00
2023-12-23T03:17:50.893Z,94052.00
2023-12-23T03:18:50.920Z,94052.00
2023-12-23T03:19:50.910Z,94062.00
2023-12-23T03:20:50.875Z,94055.00
2023-12-23T03:21:50.874Z,94061.00
2023-12-23T03:22:51.093Z,94052.00
2023-12-23T03:23:50.868Z,94049.00
2023-12-23T03:24:50.880Z,94049.00
2023-12-23T03:25:50.909Z,94053.00
2023-12-23T03:26:50.868Z,94063.00
2023-12-23T03:27:50.885Z,94060.00
2023-12-23T03:28:50.897Z,94058.00
2023-12-23T03:29:50.864Z,94051.00
2023-12-23T03:30:50.979Z,94058.00
2023-12-23T03:31:50.958Z,94058.00
2023-12-23T03:32:51.110Z,94050.00
2023-12-23T03:33:50.922Z,94059.00
2023-12-23T03:34:50.899Z,94063.00
2023-12-23T03:35:50.870Z,94050.00
2023-12-23T03:36:51.166Z,94055.00
2023-12-23T03:37:50.890Z,94061.00
2023-12-23T03:38:50.875Z,94058.00
2023-12-23T03:39:50.873Z,94064.00
2023-12-23T03:40:50.885Z,94070.00
2023-12-23T03:41:50.880Z,94080.00
2023-12-23T03:42:51.308Z,94078.00
2023-12-23T03:43:50.907Z,94081.00
2023-12-23T03:44:50.887Z,94070.00
2023-12-23T03:45:50.881Z,94065.00
2023-12-23T03:46:50.899Z,94069.00
2023-12-23T03:47:50.988Z,94069.00
2023-12-23T03:48:50.921Z,94075.00
2023-12-23T03:49:50.914Z,94068.00
2023-12-23T03:50:50.893Z,94072.00
2023-12-23T03:52:14.584Z,94077.00
2023-12-23T03:53:14.627Z,94075.00
2023-12-23T03:54:14.607Z,94073.00
2023-12-23T03:55:14.637Z,94072.00
2023-12-23T03:56:14.615Z,94076.00
2023-12-23T03:57:14.614Z,94084.00
2023-12-23T03:58:14.610Z,94080.00
2023-12-23T03:59:14.623Z,94078.00
2023-12-23T04:00:14.621Z,94068.00
2023-12-23T04:01:14.607Z,94081.00
2023-12-23T04:02:14.665Z,94082.00
2023-12-23T04:03:14.644Z,94073.00
2023-12-23T04:04:14.628Z,94077.00
2023-12-23T04:05:14.673Z,94078.00
2023-12-23T04:06:14.718Z,94080.00
2023-12-23T04:07:14.616Z,94087.00
2023-12-23T04:08:14.667Z,94078.00
2023-12-23T04:09:14.615Z,94085.00
2023-12-23T04:10:14.620Z,94078.00
2023-12-23T04:11:14.705Z,94087.00
2023-12-23T04:12:14.624Z,94086.00
2023-12-23T04:13:14.620Z,94087.00
2023-12-23T04:14:14.673Z,94092.00
2023-12-23T04:15:14.633Z,94086.00
2023-12-23T04:16:15.849Z,94096.00
2023-12-23T04:17:14.677Z,94088.00
2023-12-23T04:18:14.694Z,94096.00
2023-12-23T04:19:14.708Z,94095.00
2023-12-23T04:20:14.687Z,94098.00
2023-12-23T04:21:14.631Z,94092.00
2023-12-23T04:22:14.679Z,94090.00
2023-12-23T04:23:14.680Z,94095.00
2023-12-23T04:24:14.657Z,94090.00
2023-12-23T04:25:14.643Z,94091.00
2023-12-23T04:26:14.718Z,94091.00
2023-12-23T04:27:14.644Z,94095.00
2023-12-23T04:28:14.637Z,94094.00
2023-12-23T04:29:14.711Z,94099.00
2023-12-23T04:30:14.685Z,94104.00
2023-12-23T04:31:14.757Z,94099.00
2023-12-23T04:32:22.026Z,94104.00
2023-12-23T04:33:22.092Z,94104.00
2023-12-23T04:34:22.054Z,94103.00
2023-12-23T04:35:22.128Z,94096.00
2023-12-23T04:36:22.015Z,94097.00
2023-12-23T04:37:22.030Z,94098.00
2023-12-23T04:38:22.022Z,94104.00
2023-12-23T04:39:22.026Z,94105.00
2023-12-23T04:40:22.021Z,94104.00
2023-12-23T04:41:22.160Z,94106.00
2023-12-23T04:42:22.045Z,94098.00
2023-12-23T04:43:22.021Z,94100.00
2023-12-23T04:44:22.043Z,94104.00
2023-12-23T04:45:22.024Z,94104.00
2023-12-23T04:46:22.028Z,94100.00
2023-12-23T04:47:22.105Z,94103.00
2023-12-23T04:48:22.035Z,94116.00
2023-12-23T04:49:22.033Z,94115.00
2023-12-23T04:50:22.112Z,94114.00
2023-12-23T04:51:22.027Z,94118.00
2023-12-23T04:52:22.037Z,94118.00
2023-12-23T04:53:22.072Z,94116.00
2023-12-23T04:54:22.052Z,94110.00
2023-12-23T04:55:22.039Z,94117.00
2023-12-23T04:56:22.086Z,94118.00
2023-12-23T04:57:22.048Z,94120.00
2023-12-23T04:58:22.030Z,94120.00
2023-12-23T04:59:22.109Z,94119.00
2023-12-23T05:00:22.052Z,94124.00
2023-12-23T05:01:22.085Z,94124.00
2023-12-23T05:02:22.097Z,94120.00
2023-12-23T05:03:22.118Z,94121.00
2023-12-23T05:04:22.058Z,94116.00
2023-12-23T05:05:22.133Z,94109.00
2023-12-23T05:06:22.095Z,94109.00
2023-12-23T05:07:22.052Z,94112.00
2023-12-23T05:08:22.081Z,94106.00
2023-12-23T05:09:22.067Z,94112.00
2023-12-23T05:10:22.044Z,94110.00
2023-12-23T05:11:22.073Z,94119.00
2023-12-23T05:12:22.057Z,94115.00
2023-12-23T05:13:22.060Z,94116.00
2023-12-23T05:14:22.106Z,94120.00
2023-12-23T05:15:22.085Z,94117.00
2023-12-23T05:16:22.065Z,94124.00
2023-12-23T05:17:22.237Z,94123.00
2023-12-23T05:18:22.126Z,94116.00
2023-12-23T05:19:22.082Z,94119.00
2023-12-23T05:20:22.190Z,94112.00
2023-12-23T05:21:22.178Z,94116.00
2023-12-23T05:22:22.209Z,94111.00
2023-12-23T05:23:22.271Z,94118.00
2023-12-23T05:24:22.295Z,94127.00
2023-12-23T05:25:22.350Z,94126.00
2023-12-23T05:26:22.426Z,94123.00
2023-12-23T05:27:22.439Z,94129.00
2023-12-23T05:28:22.469Z,94127.00
2023-12-23T05:29:22.528Z,94124.00
2023-12-23T05:30:22.553Z,94117.00
2023-12-23T05:31:22.570Z,94123.00
2023-12-23T05:32:22.793Z,94123.00
2023-12-23T05:33:22.763Z,94110.00
2023-12-23T05:34:22.726Z,94108.00
2023-12-23T05:35:22.858Z,94107.00
2023-12-23T05:36:22.788Z,94109.00
2023-12-23T05:37:22.825Z,94109.00
2023-12-23T05:38:22.897Z,94104.00
2023-12-23T05:39:22.907Z,94107.00
2023-12-23T05:40:22.969Z,94104.00
2023-12-23T05:41:23.036Z,94102.00
2023-12-23T05:42:23.069Z,94106.00
2023-12-23T05:43:23.087Z,94098.00
2023-12-23T05:44:23.147Z,94097.00
2023-12-23T05:45:23.184Z,94104.00
2023-12-23T05:46:23.262Z,94102.00
2023-12-23T05:47:23.458Z,94101.00
2023-12-23T05:48:23.484Z,94106.00
2023-12-23T05:49:24.602Z,94109.00
2023-12-23T05:50:23.480Z,94102.00
2023-12-23T05:51:23.460Z,94108.00
2023-12-23T05:52:23.515Z,94107.00
2023-12-23T05:53:23.624Z,94104.00
2023-12-23T05:54:23.632Z,94103.00
2023-12-23T05:55:23.697Z,94104.00
2023-12-23T05:56:23.741Z,94097.00
2023-12-23T05:57:23.768Z,94096.00
2023-12-23T05:58:23.802Z,94086.00
2023-12-23T05:59:23.893Z,94089.00
2023-12-23T06:00:23.887Z,94094.00
2023-12-23T06:01:23.952Z,94092.00
2023-12-23T06:02:24.044Z,94095.00
2023-12-23T06:03:24.107Z,94092.00
2023-12-23T06:04:24.084Z,94090.00
2023-12-23T06:05:24.223Z,94094.00
2023-12-23T06:06:24.183Z,94098.00
2023-12-23T06:07:24.238Z,94100.00
2023-12-23T06:08:24.290Z,94109.00
2023-12-23T06:09:24.351Z,94103.00
2023-12-23T06:10:24.365Z,94101.00
2023-12-23T06:11:24.546Z,94105.00
2023-12-23T06:12:24.495Z,94113.00
2023-12-23T06:13:24.554Z,94106.00
2023-12-23T06:14:24.628Z,94100.00
2023-12-23T06:15:24.599Z,94093.00
2023-12-23T06:16:24.658Z,94100.00
2023-12-23T06:17:24.801Z,94099.00
2023-12-23T06:18:24.809Z,94094.00
2023-12-23T06:19:24.921Z,94095.00
2023-12-23T06:20:24.908Z,94101.00
2023-12-23T06:21:24.889Z,94100.00
2023-12-23T06:22:24.954Z,94097.00
2023-12-23T06:23:25.067Z,94098.00
2023-12-23T06:24:25.049Z,94103.00
2023-12-23T06:25:25.078Z,94102.00
2023-12-23T06:26:25.150Z,94105.00
2023-12-23T06:27:25.186Z,94103.00
2023-12-23T06:28:25.232Z,94100.00
2023-12-23T06:29:25.303Z,94093.00
2023-12-23T06:30:25.418Z,94104.00
2023-12-23T06:31:25.440Z,94095.00
2023-12-23T06:32:25.615Z,94094.00
2023-12-23T06:33:25.637Z,94096.00
2023-12-23T06:34:25.628Z,94098.00
2023-12-23T06:35:25.784Z,94098.00
2023-12-23T06:36:25.745Z,94103.00
2023-12-23T06:37:25.821Z,94101.00
2023-12-23T06:38:25.937Z,94097.00
2023-12-23T06:39:25.945Z,94090.00
2023-12-23T06:40:26.024Z,94091.00
2023-12-23T06:41:26.135Z,94102.00
2023-12-23T06:42:26.132Z,94099.00
2023-12-23T06:43:45.284Z,94099.00
2023-12-23T06:44:27.216Z,94090.00
2023-12-23T06:45:26.186Z,94090.00
2023-12-23T06:46:26.194Z,94095.00
2023-12-23T06:47:26.245Z,94097.00
2023-12-23T06:48:27.164Z,94100.00
2023-12-23T06:49:26.297Z,94098.00
2023-12-23T06:50:26.262Z,94093.00
2023-12-23T06:51:26.221Z,94083.00
2023-12-23T06:52:26.194Z,94081.00
2023-12-23T06:53:26.238Z,94091.00
2023-12-23T06:54:26.215Z,94097.00
2023-12-23T06:55:26.200Z,94098.00
2023-12-23T06:56:26.249Z,94091.00
2023-12-23T06:57:26.253Z,94086.00
2023-12-23T06:58:27.216Z,94092.00
2023-12-23T06:59:26.387Z,94097.00
2023-12-23T07:00:26.394Z,94100.00
2023-12-23T07:01:26.448Z,94093.00
2023-12-23T07:02:26.510Z,94089.00
2023-12-23T07:03:26.593Z,94089.00
2023-12-23T07:04:26.605Z,94082.00
2023-12-23T07:05:26.730Z,94080.00
2023-12-23T07:06:26.704Z,94087.00
2023-12-23T07:07:26.767Z,94095.00
2023-12-23T07:08:26.807Z,94094.00
2023-12-23T07:09:26.869Z,94092.00
2023-12-23T07:10:26.904Z,94094.00
2023-12-23T07:11:26.969Z,94092.00
2023-12-23T07:12:27.016Z,94091.00
2023-12-23T07:13:27.074Z,94096.00
2023-12-23T07:14:27.129Z,94103.00
2023-12-23T07:15:27.128Z,94102.00
2023-12-23T07:16:27.188Z,94102.00
2023-12-23T07:17:38.090Z,94100.00
2023-12-23T07:18:28.271Z,94107.00
2023-12-23T07:19:27.344Z,94109.00
2023-12-23T07:20:27.326Z,94103.00
2023-12-23T07:21:27.239Z,94107.00
2023-12-23T07:22:27.247Z,94104.00
2023-12-23T07:23:27.291Z,94111.00
2023-12-23T07:24:27.246Z,94113.00
2023-12-23T07:25:27.252Z,94120.00
2023-12-23T07:26:27.380Z,94120.00
2023-12-23T07:27:27.241Z,94112.00
2023-12-23T07:28:27.239Z,94108.00
2023-12-23T07:29:27.305Z,94117.00
2023-12-23T07:30:27.297Z,94121.00
2023-12-23T07:31:27.250Z,94121.00
2023-12-23T07:32:27.516Z,94123.00
2023-12-23T07:33:27.330Z,94113.00
2023-12-23T07:34:27.256Z,94123.00
2023-12-23T07:35:27.299Z,94124.00
2023-12-23T07:36:27.251Z,94112.00
2023-12-23T07:37:27.260Z,94114.00
2023-12-23T07:38:27.292Z,94114.00
2023-12-23T07:39:27.266Z,94113.00
2023-12-23T07:40:30.631Z,94113.00
2023-12-23T07:41:27.320Z,94113.00
2023-12-23T07:42:27.274Z,94113.00
2023-12-23T07:43:27.272Z,94113.00
2023-12-23T07:44:27.288Z,94115.00
2023-12-23T07:45:27.268Z,94117.00
2023-12-23T07:46:27.282Z,94112.00
2023-12-23T07:47:27.330Z,94109.00
2023-12-23T07:48:27.349Z,94116.00
2023-12-23T07:49:27.277Z,94121.00
2023-12-23T07:50:27.294Z,94115.00
2023-12-23T07:51:27.279Z,94132.00
2023-12-23T07:52:27.279Z,94125.00
2023-12-23T07:53:27.375Z,94129.00
2023-12-23T07:54:27.356Z,94123.00
2023-12-23T07:55:27.283Z,94114.00
2023-12-23T07:56:27.318Z,94110.00
2023-12-23T07:57:27.289Z,94111.00
2023-12-23T07:58:27.278Z,94115.00
2023-12-23T07:59:27.303Z,94116.00
2023-12-23T08:00:27.300Z,94112.00
2023-12-23T08:01:27.303Z,94114.00
2023-12-23T08:02:27.397Z,94111.00
2023-12-23T08:03:27.308Z,94114.00
2023-12-23T08:04:27.344Z,94124.00
2023-12-23T08:05:27.506Z,94121.00
2023-12-23T08:06:27.568Z,94119.00
2023-12-23T08:07:27.544Z,94114.00
2023-12-23T08:08:28.275Z,94110.00
2023-12-23T08:09:27.636Z,94115.00
2023-12-23T08:10:27.690Z,94118.00
2023-12-23T08:11:27.927Z,94124.00
2023-12-23T08:12:27.822Z,94113.00
2023-12-23T08:13:27.874Z,94106.00
2023-12-23T08:14:27.995Z,94105.00
2023-12-23T08:15:27.993Z,94109.00
2023-12-23T08:16:28.058Z,94107.00
2023-12-23T08:17:28.184Z,94111.00
2023-12-23T08:18:28.299Z,94110.00
2023-12-23T08:19:28.300Z,94107.00
2023-12-23T08:20:28.315Z,94109.00
2023-12-23T08:21:28.308Z,94106.00
2023-12-23T08:22:28.372Z,94112.00
2023-12-23T08:23:28.494Z,94111.00
2023-12-23T08:24:28.470Z,94106.00
2023-12-23T08:25:28.529Z,94097.00
2023-12-23T08:26:28.660Z,94095.00
2023-12-23T08:27:28.643Z,94085.00
2023-12-23T08:28:28.691Z,94082.00
2023-12-23T08:29:28.840Z,94082.00
2023-12-23T08:30:28.826Z,94089.00
2023-12-23T08:31:28.864Z,94097.00
2023-12-23T08:32:29.049Z,94092.00
2023-12-23T08:33:29.044Z,94094.00
2023-12-23T08:34:29.034Z,94094.00
2023-12-23T08:35:29.171Z,94100.00
2023-12-23T08:36:29.184Z,94116.00
2023-12-23T08:37:29.227Z,94105.00
2023-12-23T08:38:29.396Z,94102.00
2023-12-23T08:39:29.325Z,94102.00
2023-12-23T08:40:29.390Z,94102.00
2023-12-23T08:41:29.490Z,94105.00
2023-12-23T08:42:29.512Z,94102.00
2023-12-23T08:43:29.550Z,94102.00
2023-12-23T08:44:29.647Z,94105.00
2023-12-23T08:45:29.656Z,94110.00
2023-12-23T08:46:29.705Z,94105.00
2023-12-23T08:47:29.842Z,94099.00
2023-12-23T08:48:29.969Z,94103.00
2023-12-23T08:49:29.924Z,94099.00
2023-12-23T08:50:30.147Z,94097.00
2023-12-23T08:51:29.986Z,94097.00
2023-12-23T08:52:30.029Z,94102.00
2023-12-23T08:53:30.131Z,94098.00
2023-12-23T08:54:30.143Z,94095.00
2023-12-23T08:55:30.205Z,94098.00
2023-12-23T08:56:30.298Z,94103.00
2023-12-23T08:57:30.340Z,94100.00
2023-12-23T08:58:30.382Z,94104.00
2023-12-23T08:59:30.475Z,94101.00
2023-12-23T09:00:30.499Z,94103.00
2023-12-23T09:01:30.570Z,94106.00
2023-12-23T09:02:30.676Z,94103.00
2023-12-23T09:03:30.692Z,94100.00
2023-12-23T09:04:30.722Z,94097.00
2023-12-23T09:05:31.045Z,94091.00
2023-12-23T09:06:30.844Z,94093.00
2023-12-23T09:07:33.167Z,94100.00
2023-12-23T09:08:30.986Z,94102.00
2023-12-23T09:09:30.899Z,94098.00
2023-12-23T09:10:30.901Z,94093.00
2023-12-23T09:11:30.938Z,94098.00
2023-12-23T09:12:30.911Z,94105.00
2023-12-23T09:13:30.906Z,94106.00
2023-12-23T09:14:31.031Z,94110.00
2023-12-23T09:15:30.901Z,94110.00
2023-12-23T09:16:30.911Z,94104.00
2023-12-23T09:17:34.347Z,94100.00
2023-12-23T09:18:31.044Z,94101.00
2023-12-23T09:19:30.951Z,94106.00
2023-12-23T09:20:30.956Z,94105.00
2023-12-23T09:21:30.932Z,94106.00
2023-12-23T09:22:30.943Z,94108.00
2023-12-23T09:23:31.010Z,94106.00
2023-12-23T09:24:30.913Z,94106.00
2023-12-23T09:25:30.926Z,94109.00
2023-12-23T09:26:30.983Z,94106.00
2023-12-23T09:27:30.934Z,94100.00
2023-12-23T09:28:30.917Z,94106.00
2023-12-23T09:29:30.944Z,94105.00
2023-12-23T09:30:30.955Z,94097.00
2023-12-23T09:31:30.938Z,94099.00
2023-12-23T09:32:30.992Z,94109.00
2023-12-23T09:33:31.059Z,94103.00
2023-12-23T09:34:30.952Z,94100.00
2023-12-23T09:35:30.993Z,94103.00
2023-12-23T09:36:30.944Z,94103.00
2023-12-23T09:37:30.943Z,94090.00
2023-12-23T09:38:31.041Z,94089.00
2023-12-23T09:39:30.958Z,94090.00
2023-12-23T09:40:30.953Z,94099.00
2023-12-23T09:41:31.018Z,94105.00
2023-12-23T09:42:30.959Z,94099.00
2023-12-23T09:43:30.947Z,94096.00
2023-12-23T09:44:31.009Z,94098.00
2023-12-23T09:45:30.971Z,94097.00
2023-12-23T09:46:30.970Z,94089.00
2023-12-23T09:47:31.091Z,94088.00
2023-12-23T09:48:31.072Z,94093.00
2023-12-23T09:49:30.997Z,94091.00
2023-12-23T09:50:31.016Z,94084.00
2023-12-23T09:51:31.044Z,94087.00
2023-12-23T09:52:31.092Z,94090.00
2023-12-23T09:53:31.206Z,94085.00
2023-12-23T09:54:31.204Z,94085.00
2023-12-23T09:55:31.259Z,94094.00
2023-12-23T09:56:31.365Z,94086.00
2023-12-23T09:57:31.385Z,94088.00
2023-12-23T09:58:31.438Z,94085.00
2023-12-23T09:59:31.510Z,94095.00
2023-12-23T10:00:31.578Z,94092.00
2023-12-23T10:01:31.639Z,94090.00
2023-12-23T10:02:31.717Z,94087.00
2023-12-23T10:03:31.749Z,94078.00
2023-12-23T10:04:31.814Z,94082.00
2023-12-23T10:05:31.982Z,94080.00
2023-12-23T10:06:32.164Z,94072.00
2023-12-23T10:07:32.015Z,94067.00
2023-12-23T10:08:32.127Z,94068.00
2023-12-23T10:09:32.114Z,94062.00
2023-12-23T10:10:32.186Z,94056.00
2023-12-23T10:11:32.264Z,94049.00
2023-12-23T10:12:32.296Z,94053.00
2023-12-23T10:13:32.360Z,94047.00
2023-12-23T10:14:32.473Z,94043.00
2023-12-23T10:15:32.494Z,94042.00
2023-12-23T10:16:32.544Z,94042.00
2023-12-23T10:17:32.759Z,94031.00
2023-12-23T10:18:32.850Z,94027.00
2023-12-23T10:19:32.713Z,94034.00
2023-12-23T10:20:32.818Z,94033.00
2023-12-23T10:21:32.825Z,94028.00
2023-12-23T10:22:32.901Z,94026.00
2023-12-23T10:23:32.983Z,94020.00
2023-12-23T10:24:33.011Z,94026.00
2023-12-23T10:25:33.099Z,94031.00
2023-12-23T10:26:33.135Z,94028.00
2023-12-23T10:27:33.209Z,94028.00
2023-12-23T10:28:33.291Z,94014.00
2023-12-23T10:29:33.369Z,94025.00
2023-12-23T10:30:33.413Z,94023.00
2023-12-23T10:31:33.449Z,94020.00
2023-12-23T10:32:33.558Z,94017.00
2023-12-23T10:33:33.617Z,94011.00
2023-12-23T10:34:33.632Z,94005.00
2023-12-23T10:35:33.776Z,94008.00
2023-12-23T10:36:33.761Z,94009.00
2023-12-23T10:37:33.820Z,94005.00
2023-12-23T10:38:33.932Z,94010.00
2023-12-23T10:39:33.940Z,94004.00
2023-12-23T10:40:33.978Z,94004.00
2023-12-23T10:41:34.041Z,94001.00
2023-12-23T10:42:34.105Z,93996.00
2023-12-23T10:43:34.193Z,93996.00
2023-12-23T10:44:34.236Z,94002.00
2023-12-23T10:45:37.166Z,94007.00
2023-12-23T10:46:34.283Z,94002.00
2023-12-23T10:47:34.580Z,93992.00
2023-12-23T10:48:35.376Z,94002.00
2023-12-23T10:49:34.304Z,94003.00
2023-12-23T10:50:34.342Z,93997.00
2023-12-23T10:51:34.290Z,93989.00
2023-12-23T10:52:34.315Z,93987.00
2023-12-23T10:53:34.371Z,93988.00
2023-12-23T10:54:34.293Z,93988.00
2023-12-23T10:55:34.287Z,93987.00
2023-12-23T10:56:34.348Z,93984.00
2023-12-23T10:57:34.313Z,93976.00
2023-12-23T10:58:34.298Z,93984.00
2023-12-23T10:59:34.316Z,93982.00
2023-12-23T11:00:34.320Z,93975.00
2023-12-23T11:01:34.342Z,93985.00
2023-12-23T11:02:34.312Z,93986.00
2023-12-23T11:03:34.322Z,93984.00
2023-12-23T11:04:34.307Z,93974.00
2023-12-23T11:05:34.417Z,93974.00
2023-12-23T11:06:34.355Z,93984.00
2023-12-23T11:07:34.326Z,93980.00
2023-12-23T11:08:34.438Z,93987.00
2023-12-23T11:09:34.311Z,93989.00
2023-12-23T11:10:34.325Z,93988.00
2023-12-23T11:11:34.356Z,93977.00
2023-12-23T11:12:34.444Z,93965.00
2023-12-23T11:13:34.487Z,93970.00
2023-12-23T11:14:34.540Z,93970.00
2023-12-23T11:15:34.581Z,93973.00
2023-12-23T11:16:34.639Z,93967.00
2023-12-23T11:17:34.736Z,93980.00
2023-12-23T11:18:34.893Z,93982.00
2023-12-23T11:19:34.813Z,93980.00
2023-12-23T11:20:34.910Z,93971.00
2023-12-23T11:21:34.933Z,93963.00
2023-12-23T11:22:35.013Z,93959.00
2023-12-23T11:23:35.311Z,93950.00
2023-12-23T11:24:35.098Z,93960.00
2023-12-23T11:25:35.155Z,93960.00
2023-12-23T11:26:35.279Z,93968.00
2023-12-23T11:27:35.275Z,93977.00
2023-12-23T11:28:35.378Z,93975.00
2023-12-23T11:29:35.388Z,93966.00
2023-12-23T11:30:35.458Z,93957.00
2023-12-23T11:31:35.535Z,93956.00
2023-12-23T11:32:35.649Z,93949.00
2023-12-23T11:33:35.721Z,93945.00
2023-12-23T11:34:35.677Z,93947.00
2023-12-23T11:35:35.747Z,93939.00
2023-12-23T11:36:35.788Z,93944.00
2023-12-23T11:37:35.844Z,93950.00
2023-12-23T11:38:35.931Z,93943.00
2023-12-23T11:39:35.957Z,93941.00
2023-12-23T11:40:36.011Z,93947.00
2023-12-23T11:41:36.846Z,93946.00
2023-12-23T11:42:36.135Z,93965.00
2023-12-23T11:43:36.188Z,93944.00
2023-12-23T11:44:36.286Z,93957.00
2023-12-23T11:45:36.305Z,93940.00